^^
Station Historical Data
Daily Summary for March 11, 2017 Units:  English    Metric   Both
« Previous Day
Next Day »
Daily Weekly Monthly Yearly Custom
  High: Low: Average:
Temperature: 25.5 °F 14.0 °F 19.6 °F
Dew Point: 10.5 °F 0.9 °F 4.6 °F
Humidity: 58% 42% 52%
Wind Speed: 9.0mph 0.0mph 2.8mph
Wind Gust: 26.0mph - -
Wind- - SW
Pressure: 30.28 in 30.04 in -
Precipitation: 0.00 in    
Historical Graphs
 
 
Tabular Data for March 11, 2017
Time Temperature Dew Point Pressure Wind Wind Speed Wind Gust Humidity Rainfall Rate (Hourly) Conditions
00:15 19.7 °F 4.0 °F 30.04 in SW 8.0 mph 25.0 mph 50% 0.00 in FEW
00:30 19.4 °F 3.3 °F 30.05 in ENE 3.0 mph 22.0 mph 49% 0.00 in FEW
00:45 19.0 °F 1.6 °F 30.05 in NW 2.0 mph 20.0 mph 46% 0.00 in FEW
01:00 18.6 °F 2.1 °F 30.06 in NNW 5.0 mph 15.0 mph 48% 0.00 in FEW
02:15 17.0 °F 2.8 °F 30.08 in SE 1.0 mph 26.0 mph 53% 0.00 in FEW
02:30 16.6 °F 2.4 °F 30.08 in WNW 1.0 mph 16.0 mph 53% 0.00 in FEW
02:45 16.4 °F 3.0 °F 30.08 in East 1.0 mph 9.0 mph 55% 0.00 in FEW
03:00 16.3 °F 2.5 °F 30.08 in NW 2.0 mph 17.0 mph 54% 0.00 in FEW
03:15 16.0 °F 2.3 °F 30.08 in NNW 3.0 mph 22.0 mph 54% 0.00 in FEW
03:30 15.8 °F 2.1 °F 30.08 in SE 3.0 mph 13.0 mph 54% 0.00 in FEW
03:45 15.6 °F 1.9 °F 30.09 in NNW 2.0 mph 14.0 mph 54% 0.00 in FEW
04:00 15.5 °F 1.8 °F 30.09 in NNW 3.0 mph 13.0 mph 54% 0.00 in FEW
04:15 15.4 °F 1.7 °F 30.10 in Calm   13.0 mph 54% 0.00 in SCT
04:30 15.1 °F 1.8 °F 30.10 in Calm   12.0 mph 55% 0.00 in SCT
04:45 15.0 °F 1.7 °F 30.11 in West 5.0 mph 17.0 mph 55% 0.00 in SCT
05:00 14.9 °F 1.6 °F 30.12 in NNE 7.0 mph 14.0 mph 55% 0.00 in SCT
05:15 14.8 °F 1.1 °F 30.13 in North 1.0 mph 12.0 mph 54% 0.00 in SCT
05:30 14.6 °F 0.9 °F 30.14 in West 1.0 mph 14.0 mph 54% 0.00 in SCT
05:45 14.6 °F 1.3 °F 30.15 in SW 1.0 mph 15.0 mph 55% 0.00 in SCT
06:00 14.4 °F 1.5 °F 30.16 in WSW 2.0 mph 15.0 mph 56% 0.00 in SCT
06:15 14.3 °F 1.8 °F 30.16 in SE 2.0 mph 20.0 mph 57% 0.00 in FEW
06:30 14.2 °F 1.4 °F 30.17 in NNW 1.0 mph 12.0 mph 56% 0.00 in FEW
06:45 14.1 °F 1.6 °F 30.18 in ESE 1.0 mph 7.0 mph 57% 0.00 in FEW
07:00 14.0 °F 1.9 °F 30.18 in Calm   12.0 mph 58% 0.00 in FEW
07:15 14.0 °F 1.9 °F 30.19 in WSW 3.0 mph 12.0 mph 58% 0.00 in FEW
07:30 14.1 °F 1.6 °F 30.19 in WNW 2.0 mph 12.0 mph 57% 0.00 in FEW
07:45 14.3 °F 2.2 °F 30.20 in NW 1.0 mph 6.0 mph 58% 0.00 in FEW
08:00 14.8 °F 2.7 °F 30.20 in Calm   10.0 mph 58% 0.00 in FEW
08:15 15.8 °F 3.3 °F 30.20 in West 2.0 mph 7.0 mph 57% 0.00 in SCT
08:30 17.0 °F 4.4 °F 30.20 in Calm   10.0 mph 57% 0.00 in SCT
08:45 17.1 °F 3.7 °F 30.20 in WSW 5.0 mph 12.0 mph 55% 0.00 in SCT
09:00 17.7 °F 3.1 °F 30.20 in SW 3.0 mph 12.0 mph 52% 0.00 in SCT
09:15 18.4 °F 3.7 °F 30.20 in SSW 2.0 mph 14.0 mph 52% 0.00 in SCT
09:30 17.8 °F 3.5 °F 30.20 in WSW 7.0 mph 17.0 mph 53% 0.00 in SCT
09:45 18.6 °F 4.7 °F 30.20 in SSW 2.0 mph 20.0 mph 54% 0.00 in SCT
10:00 18.7 °F 4.4 °F 30.20 in SW 3.0 mph 13.0 mph 53% 0.00 in SCT
10:15 19.1 °F 3.5 °F 30.19 in SW 5.0 mph 16.0 mph 50% 0.00 in BKN
10:30 19.9 °F 3.8 °F 30.19 in WSW 5.0 mph 18.0 mph 49% 0.00 in BKN
10:45 20.6 °F 4.4 °F 30.19 in Calm   14.0 mph 49% 0.00 in BKN
11:00 20.1 °F 4.4 °F 30.18 in West 1.0 mph 13.0 mph 50% 0.00 in BKN
11:15 20.2 °F 4.0 °F 30.18 in West 2.0 mph 12.0 mph 49% 0.00 in BKN
11:30 21.2 °F 5.4 °F 30.18 in WSW 3.0 mph 12.0 mph 50% 0.00 in BKN
12:00 21.5 °F 5.7 °F 30.17 in NE 2.0 mph 17.0 mph 50% 0.00 in BKN
12:15 22.7 °F 6.8 °F 30.17 in NE 1.0 mph 9.0 mph 50% 0.00 in BKN
12:30 23.5 °F 4.2 °F 30.16 in WSW 2.0 mph 23.0 mph 43% 0.00 in BKN
12:45 24.4 °F 5.1 °F 30.16 in SW 6.0 mph 25.0 mph 43% 0.00 in BKN
13:00 24.3 °F 4.5 °F 30.15 in West 6.0 mph 25.0 mph 42% 0.00 in BKN
13:15 24.8 °F 5.4 °F 30.15 in SW 5.0 mph 17.0 mph 43% 0.00 in BKN
13:30 23.4 °F 4.2 °F 30.15 in WNW 8.0 mph 17.0 mph 43% 0.00 in BKN
13:45 23.1 °F 4.9 °F 30.15 in WNW 5.0 mph 24.0 mph 45% 0.00 in BKN
14:00 24.6 °F 6.2 °F 30.14 in SW 3.0 mph 10.0 mph 45% 0.00 in BKN
14:15 24.6 °F 6.3 °F 30.14 in NW 1.0 mph 13.0 mph 45% 0.00 in BKN
14:30 24.2 °F 6.9 °F 30.14 in WNW 6.0 mph 15.0 mph 47% 0.00 in BKN
14:45 24.2 °F 7.8 °F 30.14 in West 2.0 mph 14.0 mph 49% 0.00 in BKN
15:00 24.3 °F 7.4 °F 30.13 in WNW 2.0 mph 12.0 mph 48% 0.00 in BKN
15:15 25.5 °F 7.6 °F 30.14 in West 1.0 mph 12.0 mph 46% 0.00 in BKN
15:30 24.8 °F 7.8 °F 30.14 in NW 5.0 mph 13.0 mph 48% 0.00 in BKN
15:45 23.9 °F 9.3 °F 30.14 in NW 5.0 mph 13.0 mph 53% 0.00 in BKN
16:00 23.5 °F 10.5 °F 30.14 in NE 3.0 mph 15.0 mph 57% 0.00 in BKN
16:15 24.0 °F 8.0 °F 30.14 in WSW 9.0 mph 16.0 mph 50% 0.00 in BKN
16:30 25.0 °F 5.6 °F 30.15 in West 7.0 mph 17.0 mph 43% 0.00 in BKN
16:45 25.2 °F 7.8 °F 30.15 in North 5.0 mph 16.0 mph 47% 0.00 in BKN
17:15 24.2 °F 6.8 °F 30.17 in WSW 7.0 mph 17.0 mph 47% 0.00 in BKN
17:30 24.3 °F 6.5 °F 30.17 in NW 3.0 mph 14.0 mph 46% 0.00 in BKN
18:00 23.4 °F 5.6 °F 30.18 in East 2.0 mph 17.0 mph 46% 0.00 in BKN
18:15 23.0 °F 6.7 °F 30.19 in NW 3.0 mph 16.0 mph 49% 0.00 in SCT
18:30 22.7 °F 5.9 °F 30.19 in West 1.0 mph 18.0 mph 48% 0.00 in SCT
18:45 22.3 °F 6.0 °F 30.20 in NNE 5.0 mph 16.0 mph 49% 0.00 in SCT
19:00 22.1 °F 7.1 °F 30.20 in NE 3.0 mph 15.0 mph 52% 0.00 in SCT
19:15 22.0 °F 6.6 °F 30.21 in SW 1.0 mph 13.0 mph 51% 0.00 in SCT
19:30 21.9 °F 6.0 °F 30.21 in NW 3.0 mph 16.0 mph 50% 0.00 in SCT
19:45 21.5 °F 7.4 °F 30.22 in NE 2.0 mph 12.0 mph 54% 0.00 in SCT
20:00 21.2 °F 7.1 °F 30.23 in SSE 3.0 mph 12.0 mph 54% 0.00 in SCT
20:15 21.0 °F 6.9 °F 30.23 in West 2.0 mph 13.0 mph 54% 0.00 in FEW
20:30 20.8 °F 7.1 °F 30.23 in SSE 3.0 mph 12.0 mph 55% 0.00 in FEW
20:45 20.5 °F 6.9 °F 30.24 in NE 1.0 mph 9.0 mph 55% 0.00 in FEW
21:00 20.3 °F 5.9 °F 30.24 in SE 3.0 mph 17.0 mph 53% 0.00 in FEW
21:15 20.1 °F 6.5 °F 30.25 in WNW 1.0 mph 10.0 mph 55% 0.00 in FEW
21:30 20.0 °F 5.6 °F 30.25 in SSE 1.0 mph 17.0 mph 53% 0.00 in FEW
21:45 19.8 °F 5.8 °F 30.26 in NNW 3.0 mph 14.0 mph 54% 0.00 in FEW
22:00 19.7 °F 5.7 °F 30.26 in Calm   12.0 mph 54% 0.00 in FEW
22:15 19.5 °F 5.5 °F 30.27 in WSW 2.0 mph 14.0 mph 54% 0.00 in CLR
22:30 19.4 °F 5.0 °F 30.27 in SW 1.0 mph 12.0 mph 53% 0.00 in CLR
22:45 19.3 °F 5.3 °F 30.28 in WNW 1.0 mph 14.0 mph 54% 0.00 in CLR
23:00 19.2 °F 5.3 °F 30.28 in ESE 2.0 mph 10.0 mph 54% 0.00 in CLR
23:15 19.0 °F 5.1 °F 30.28 in SW 2.0 mph 14.0 mph 54% 0.00 in FEW
23:30 18.9 °F 5.0 °F 30.28 in SW 2.0 mph 17.0 mph 54% 0.00 in FEW
23:45 18.9 °F 6.2 °F 30.28 in NW 2.0 mph 14.0 mph 57% 0.00 in FEW
TarryTown NY Weather
Compliments of Weather Underground - 1.5 mb